createdAt,value
2022-10-13T00:00:54.194Z,8.75
2022-10-13T00:03:23.367Z,8.30
2022-10-13T00:05:51.711Z,8.77
2022-10-13T00:08:22.085Z,8.82
2022-10-13T00:10:53.734Z,9.13
2022-10-13T00:13:21.488Z,8.05
2022-10-13T00:15:49.613Z,8.70
2022-10-13T00:18:18.076Z,9.02
2022-10-13T00:20:49.197Z,8.48
2022-10-13T00:23:17.355Z,8.13
2022-10-13T00:25:46.423Z,8.70
2022-10-13T00:28:15.623Z,8.32
2022-10-13T00:30:43.404Z,9.10
2022-10-13T00:33:11.495Z,9.02
2022-10-13T00:35:41.891Z,9.02
2022-10-13T00:38:11.568Z,8.43
2022-10-13T00:40:46.894Z,8.70
2022-10-13T00:43:17.983Z,8.88
2022-10-13T00:45:46.724Z,8.30
2022-10-13T00:48:14.436Z,9.05
2022-10-13T00:50:43.428Z,9.13
2022-10-13T00:53:12.984Z,8.77
2022-10-13T00:55:42.247Z,8.77
2022-10-13T00:58:11.955Z,8.85
2022-10-13T01:00:39.829Z,9.02
2022-10-13T01:03:07.550Z,8.80
2022-10-13T01:05:35.412Z,8.68
2022-10-13T01:08:03.728Z,8.68
2022-10-13T01:10:41.795Z,8.88
2022-10-13T01:13:14.552Z,9.18
2022-10-13T01:15:45.742Z,8.63
2022-10-13T01:18:17.485Z,8.60
2022-10-13T01:21:17.185Z,8.85
2022-10-13T01:24:14.159Z,8.43
2022-10-13T01:27:14.919Z,8.77
2022-10-13T01:30:11.711Z,8.52
2022-10-13T01:32:49.262Z,8.65
2022-10-13T01:35:20.837Z,8.68
2022-10-13T01:37:50.924Z,8.93
2022-10-13T01:40:24.910Z,9.40
2022-10-13T01:42:57.940Z,9.13
2022-10-13T01:45:31.507Z,9.07
2022-10-13T01:47:59.850Z,8.82
2022-10-13T01:50:27.780Z,9.48
2022-10-13T01:52:55.829Z,9.35
2022-10-13T01:55:23.766Z,9.63
2022-10-13T01:57:51.420Z,9.52
2022-10-13T02:00:21.009Z,9.48
2022-10-13T02:02:57.019Z,9.00
2022-10-13T02:05:28.262Z,9.40
2022-10-13T02:08:02.626Z,10.05
2022-10-13T02:10:35.432Z,8.63
2022-10-13T02:13:04.758Z,10.10
2022-10-13T02:15:36.100Z,9.60
2022-10-13T02:18:05.802Z,9.60
2022-10-13T02:20:33.793Z,10.50
2022-10-13T02:23:03.927Z,10.75
2022-10-13T02:25:32.182Z,10.35
2022-10-13T02:28:01.196Z,10.00
2022-10-13T02:30:31.279Z,10.25
2022-10-13T02:32:58.965Z,10.15
2022-10-13T02:35:28.072Z,10.65
2022-10-13T02:37:55.674Z,10.60
2022-10-13T02:40:23.404Z,11.05
2022-10-13T02:42:51.089Z,10.75
2022-10-13T02:45:19.223Z,10.67
2022-10-13T02:47:46.898Z,10.63
2022-10-13T02:50:14.659Z,9.98
2022-10-13T02:52:43.709Z,11.20
2022-10-13T02:55:11.449Z,10.40
2022-10-13T02:57:39.158Z,10.88
2022-10-13T03:00:08.188Z,10.88
2022-10-13T03:02:35.946Z,10.80
2022-10-13T03:05:03.632Z,11.43
2022-10-13T03:07:31.294Z,10.60
2022-10-13T03:10:00.379Z,11.15
2022-10-13T03:12:28.122Z,11.77
2022-10-13T03:14:55.719Z,11.20
2022-10-13T03:17:23.427Z,11.77
2022-10-13T03:19:51.224Z,12.20
2022-10-13T03:22:19.306Z,11.13
2022-10-13T03:24:47.116Z,11.48
2022-10-13T03:27:16.143Z,11.07
2022-10-13T03:29:43.758Z,10.70
2022-10-13T03:32:11.675Z,11.47
2022-10-13T03:34:39.343Z,11.00
2022-10-13T03:37:07.393Z,11.52
2022-10-13T03:39:35.058Z,10.98
2022-10-13T03:42:02.924Z,11.60
2022-10-13T03:44:31.978Z,11.60
2022-10-13T03:46:59.667Z,11.95
2022-10-13T03:49:27.339Z,11.30
2022-10-13T03:51:54.964Z,11.07
2022-10-13T03:54:22.724Z,11.00
2022-10-13T03:56:50.373Z,11.13
2022-10-13T03:59:18.594Z,10.77
2022-10-13T04:01:47.700Z,11.93
2022-10-13T04:04:15.564Z,11.60
2022-10-13T04:06:43.426Z,11.23
2022-10-13T04:09:11.117Z,11.82
2022-10-13T04:11:38.758Z,10.48
2022-10-13T04:14:06.422Z,11.80
2022-10-13T04:16:34.147Z,11.55
2022-10-13T04:19:05.231Z,11.35
2022-10-13T04:21:34.448Z,11.20
2022-10-13T04:24:03.008Z,11.07
2022-10-13T04:26:32.660Z,12.13
2022-10-13T04:29:01.071Z,11.40
2022-10-13T04:31:30.394Z,11.10
2022-10-13T04:33:58.759Z,11.75
2022-10-13T04:36:28.899Z,11.77
2022-10-13T04:38:56.702Z,11.90
2022-10-13T04:41:25.754Z,12.57
2022-10-13T04:43:54.566Z,12.43
2022-10-13T04:46:24.210Z,12.90
2022-10-13T04:48:52.081Z,12.23
2022-10-13T04:51:22.117Z,11.93
2022-10-13T04:53:55.443Z,12.85
2022-10-13T04:56:23.039Z,11.85
2022-10-13T04:58:50.702Z,12.73
2022-10-13T05:01:22.078Z,13.68
2022-10-13T05:03:52.071Z,12.35
2022-10-13T05:06:21.530Z,13.27
2022-10-13T05:08:49.272Z,12.85
2022-10-13T05:11:19.961Z,12.98
2022-10-13T05:13:47.939Z,13.23
2022-10-13T05:16:17.065Z,13.52
2022-10-13T05:18:44.963Z,12.93
2022-10-13T05:21:14.295Z,13.60
2022-10-13T05:23:42.824Z,13.35
2022-10-13T05:26:12.877Z,13.02
2022-10-13T05:28:42.310Z,13.80
2022-10-13T05:31:11.618Z,12.48
2022-10-13T05:33:39.751Z,12.47
2022-10-13T05:36:08.994Z,14.27
2022-10-13T05:38:36.735Z,12.93
2022-10-13T05:41:05.459Z,13.55
2022-10-13T05:43:33.457Z,14.43
2022-10-13T05:46:02.795Z,13.85
2022-10-13T05:48:30.829Z,14.05
2022-10-13T05:51:00.547Z,14.57
2022-10-13T05:53:29.733Z,12.85
2022-10-13T05:56:05.953Z,14.27
2022-10-13T05:58:34.127Z,14.60
2022-10-13T06:01:03.320Z,13.80
2022-10-13T06:03:31.085Z,13.60
2022-10-13T06:05:58.798Z,13.05
2022-10-13T06:08:26.429Z,13.55
2022-10-13T06:10:54.237Z,13.27
2022-10-13T06:13:21.816Z,13.77
2022-10-13T06:15:49.455Z,13.32
2022-10-13T06:18:18.506Z,13.80
2022-10-13T06:20:46.144Z,13.75
2022-10-13T06:23:13.839Z,13.95
2022-10-13T06:25:48.248Z,14.50
2022-10-13T06:28:16.363Z,14.18
2022-10-13T06:30:46.958Z,14.48
2022-10-13T06:33:14.713Z,14.43
2022-10-13T06:35:43.698Z,13.85
2022-10-13T06:38:11.605Z,14.13
2022-10-13T06:40:39.293Z,15.52
2022-10-13T06:43:07.048Z,14.48
2022-10-13T06:45:34.617Z,13.95
2022-10-13T06:48:02.270Z,13.20
2022-10-13T06:50:32.129Z,14.20
2022-10-13T06:53:01.195Z,14.45
2022-10-13T06:55:28.835Z,14.55
2022-10-13T06:57:56.877Z,13.70
2022-10-13T07:00:24.551Z,13.25
2022-10-13T07:02:53.130Z,12.95
2022-10-13T07:05:20.847Z,13.63
2022-10-13T07:07:48.536Z,13.25
2022-10-13T07:10:17.812Z,13.82
2022-10-13T07:12:45.667Z,13.63
2022-10-13T07:15:13.343Z,13.90
2022-10-13T07:17:41.071Z,14.05
2022-10-13T07:20:09.497Z,13.68
2022-10-13T07:22:37.489Z,13.83
2022-10-13T07:25:05.627Z,13.98
2022-10-13T07:27:34.587Z,14.90
2022-10-13T07:30:02.240Z,13.80
2022-10-13T07:32:30.129Z,15.18
2022-10-13T07:34:57.947Z,14.63
2022-10-13T07:37:26.220Z,14.27
2022-10-13T07:39:53.916Z,13.27
2022-10-13T07:42:21.598Z,14.48
2022-10-13T07:44:50.655Z,13.93
2022-10-13T07:47:18.679Z,14.02
2022-10-13T07:49:47.090Z,14.43
2022-10-13T07:52:14.854Z,14.15
2022-10-13T07:54:42.786Z,13.82
2022-10-13T07:57:10.554Z,13.70
2022-10-13T07:59:38.340Z,15.10
2022-10-13T08:02:07.622Z,14.43
2022-10-13T08:04:35.964Z,14.48
2022-10-13T08:07:04.318Z,14.57
2022-10-13T08:09:32.181Z,14.00
2022-10-13T08:12:00.961Z,15.38
2022-10-13T08:14:29.954Z,14.30
2022-10-13T08:16:57.922Z,13.55
2022-10-13T08:19:28.298Z,13.80
2022-10-13T08:21:58.577Z,14.90
2022-10-13T08:24:28.209Z,14.70
2022-10-13T08:26:55.813Z,14.73
2022-10-13T08:29:24.282Z,13.95
2022-10-13T08:31:53.195Z,14.50
2022-10-13T08:34:21.904Z,14.68
2022-10-13T08:36:53.023Z,14.73
2022-10-13T08:39:21.352Z,15.57
2022-10-13T08:41:49.275Z,15.47
2022-10-13T08:44:59.567Z,15.00
2022-10-13T08:47:13.342Z,15.07
2022-10-13T08:49:42.351Z,13.90
2022-10-13T08:52:18.356Z,14.95
2022-10-13T08:54:46.662Z,13.45
2022-10-13T08:57:14.573Z,14.82
2022-10-13T08:59:42.305Z,14.73
2022-10-13T09:02:14.752Z,14.18
2022-10-13T09:04:46.571Z,15.15
2022-10-13T09:07:18.135Z,14.98
2022-10-13T09:09:46.053Z,15.30
2022-10-13T09:12:15.667Z,15.68
2022-10-13T09:14:43.343Z,15.38
2022-10-13T09:17:16.809Z,14.45
2022-10-13T09:19:45.340Z,14.55
2022-10-13T09:22:24.059Z,15.27
2022-10-13T09:25:09.285Z,14.48
2022-10-13T09:27:43.583Z,15.13
2022-10-13T09:30:33.688Z,15.70
2022-10-13T09:33:20.595Z,16.10
2022-10-13T09:35:50.416Z,16.65
2022-10-13T09:38:21.391Z,15.25
2022-10-13T09:40:59.268Z,15.60
2022-10-13T09:43:33.799Z,16.00
2022-10-13T09:46:02.834Z,15.25
2022-10-13T09:48:32.678Z,15.38
2022-10-13T09:51:00.408Z,15.65
2022-10-13T09:53:33.989Z,14.93
2022-10-13T09:56:18.150Z,15.30
2022-10-13T09:58:50.367Z,14.43
2022-10-13T10:01:22.830Z,15.65
2022-10-13T10:03:50.675Z,15.30
2022-10-13T10:06:19.219Z,15.50
2022-10-13T10:09:09.143Z,15.38
2022-10-13T10:11:41.792Z,14.90
2022-10-13T10:14:17.058Z,14.23
2022-10-13T10:16:47.770Z,14.45
2022-10-13T10:19:21.604Z,14.70
2022-10-13T10:21:51.276Z,14.82
2022-10-13T10:24:27.008Z,14.30
2022-10-13T10:26:57.482Z,14.40
2022-10-13T10:29:30.706Z,15.05
2022-10-13T10:32:20.984Z,13.73
2022-10-13T10:34:52.244Z,15.18
2022-10-13T10:37:25.491Z,14.77
2022-10-13T10:40:01.338Z,14.35
2022-10-13T10:42:49.727Z,15.52
2022-10-13T10:45:23.621Z,14.27
2022-10-13T10:47:53.397Z,13.97
2022-10-13T10:50:21.954Z,14.18
2022-10-13T10:52:56.169Z,13.93
2022-10-13T10:55:31.533Z,13.67
2022-10-13T10:58:15.048Z,12.98
2022-10-13T11:00:46.720Z,13.45
2022-10-13T11:03:23.359Z,13.93
2022-10-13T11:06:02.897Z,13.60
2022-10-13T11:08:32.323Z,13.57
2022-10-13T11:11:35.045Z,13.63
2022-10-13T11:14:24.442Z,14.13
2022-10-13T11:17:25.106Z,14.10
2022-10-13T11:19:53.173Z,13.43
2022-10-13T11:22:23.883Z,14.48
2022-10-13T11:25:20.529Z,13.30
2022-10-13T11:27:49.855Z,13.70
2022-10-13T11:30:57.445Z,14.30
2022-10-13T11:33:36.465Z,13.02
2022-10-13T11:36:43.940Z,13.23
2022-10-13T11:39:36.583Z,12.85
2022-10-13T11:42:12.741Z,13.18
2022-10-13T11:44:51.806Z,13.88
2022-10-13T11:47:31.602Z,12.80
2022-10-13T11:50:05.211Z,13.30
2022-10-13T11:52:55.088Z,12.38
2022-10-13T11:55:34.493Z,11.82
2022-10-13T11:58:16.610Z,12.02
2022-10-13T12:00:56.818Z,11.50
2022-10-13T12:03:28.200Z,12.40
2022-10-13T12:05:59.168Z,12.70
2022-10-13T12:08:27.224Z,12.18
2022-10-13T12:10:58.182Z,12.63
2022-10-13T12:13:27.420Z,11.23
2022-10-13T12:16:03.194Z,11.87
2022-10-13T12:18:34.142Z,11.27
2022-10-13T12:21:04.163Z,11.65
2022-10-13T12:23:33.429Z,11.93
2022-10-13T12:26:01.569Z,12.02
2022-10-13T12:28:31.040Z,11.60
2022-10-13T12:31:01.332Z,12.20
2022-10-13T12:33:31.143Z,12.82
2022-10-13T12:36:12.713Z,12.70
2022-10-13T12:38:45.037Z,13.38
2022-10-13T12:41:12.959Z,13.27
2022-10-13T12:43:40.934Z,13.75
2022-10-13T12:46:09.970Z,14.13
2022-10-13T12:48:38.422Z,15.60
2022-10-13T12:51:14.138Z,15.98
2022-10-13T12:53:41.917Z,15.50
2022-10-13T12:56:19.910Z,16.15
2022-10-13T12:58:47.616Z,18.37
2022-10-13T13:01:33.501Z,17.48
2022-10-13T13:04:03.222Z,18.42
2022-10-13T13:06:33.461Z,18.08
2022-10-13T13:09:08.711Z,17.50
2022-10-13T13:11:37.736Z,18.75
2022-10-13T13:14:25.467Z,18.60
2022-10-13T13:17:10.472Z,19.43
2022-10-13T13:19:38.324Z,19.58
2022-10-13T13:22:06.946Z,19.17
2022-10-13T13:24:40.303Z,19.20
2022-10-13T13:27:18.416Z,19.70
2022-10-13T13:29:46.363Z,19.33
2022-10-13T13:32:19.866Z,19.30
2022-10-13T13:34:48.030Z,20.60
2022-10-13T13:37:22.231Z,17.83
2022-10-13T13:39:50.075Z,18.35
2022-10-13T13:42:17.967Z,18.50
2022-10-13T13:44:45.686Z,19.95
2022-10-13T13:47:22.770Z,18.85
2022-10-13T13:49:51.902Z,19.95
2022-10-13T13:52:19.763Z,19.27
2022-10-13T13:54:47.460Z,19.42
2022-10-13T13:57:15.876Z,19.55
2022-10-13T13:59:44.002Z,19.73
2022-10-13T14:02:14.909Z,21.30
2022-10-13T14:04:44.430Z,20.33
2022-10-13T14:07:12.585Z,20.17
2022-10-13T14:09:40.330Z,19.77
2022-10-13T14:12:08.133Z,22.05
2022-10-13T14:14:35.881Z,20.20
2022-10-13T14:17:04.694Z,19.20
2022-10-13T14:19:32.801Z,19.10
2022-10-13T14:22:05.859Z,15.77
2022-10-13T14:24:36.208Z,17.08
2022-10-13T14:27:03.927Z,17.02
2022-10-13T14:29:31.767Z,16.73
2022-10-13T14:31:59.475Z,17.10
2022-10-13T14:34:27.544Z,16.10
2022-10-13T14:36:55.497Z,16.98
2022-10-13T14:39:24.670Z,16.70
2022-10-13T14:41:52.339Z,15.88
2022-10-13T14:44:20.248Z,14.87
2022-10-13T14:46:47.951Z,15.60
2022-10-13T14:49:15.737Z,16.60
2022-10-13T14:51:43.614Z,16.35
2022-10-13T14:54:11.393Z,16.10
2022-10-13T14:56:40.520Z,16.33
2022-10-13T14:59:08.772Z,16.43
2022-10-13T15:01:36.494Z,16.07
2022-10-13T15:04:04.675Z,15.90
2022-10-13T15:06:32.790Z,16.33
2022-10-13T15:09:02.438Z,16.92
2022-10-13T15:11:30.062Z,17.08
2022-10-13T15:13:59.097Z,17.95
2022-10-13T15:16:28.861Z,17.03
2022-10-13T15:18:57.091Z,16.88
2022-10-13T15:21:25.352Z,17.92
2022-10-13T15:23:53.036Z,17.58
2022-10-13T15:26:21.153Z,30.83
2022-10-13T15:28:51.142Z,28.52
2022-10-13T15:34:05.586Z,20.70
2022-10-13T15:36:33.185Z,20.33
2022-10-13T15:39:00.815Z,18.40
2022-10-13T15:41:28.447Z,20.55
2022-10-13T15:43:56.076Z,19.43
2022-10-13T15:46:24.280Z,21.33
2022-10-13T15:48:53.205Z,21.27
2022-10-13T15:51:24.132Z,22.80
2022-10-13T15:53:52.159Z,19.48
2022-10-13T15:56:19.886Z,26.08
2022-10-13T15:58:47.548Z,22.17
2022-10-13T16:01:15.294Z,18.17
2022-10-13T16:03:43.487Z,19.00
2022-10-13T16:06:13.087Z,19.58
2022-10-13T16:08:43.987Z,17.13
2022-10-13T16:11:12.914Z,17.40
2022-10-13T16:13:41.031Z,17.50
2022-10-13T16:16:08.922Z,17.27
2022-10-13T16:18:38.427Z,18.58
2022-10-13T16:21:12.347Z,18.23
2022-10-13T16:23:45.424Z,17.17
2022-10-13T16:26:13.186Z,18.20
2022-10-13T16:28:41.126Z,17.38
2022-10-13T16:31:12.608Z,18.33
2022-10-13T16:33:41.083Z,19.48
2022-10-13T16:36:10.597Z,22.20
2022-10-13T16:38:38.224Z,19.57
2022-10-13T16:41:09.319Z,24.52
2022-10-13T16:43:37.046Z,20.63
2022-10-13T16:46:06.951Z,21.83
2022-10-13T16:48:34.887Z,21.10
2022-10-13T16:51:06.535Z,19.60
2022-10-13T16:53:34.555Z,20.13
2022-10-13T16:56:02.240Z,20.90
2022-10-13T16:58:31.351Z,21.55
2022-10-13T17:01:03.988Z,22.58
2022-10-13T17:03:31.728Z,23.33
2022-10-13T17:05:59.399Z,20.10
2022-10-13T17:08:27.147Z,20.50
2022-10-13T17:10:58.233Z,23.58
2022-10-13T17:13:26.178Z,23.70
2022-10-13T17:15:57.074Z,22.27
2022-10-13T17:18:25.761Z,22.67
2022-10-13T17:20:54.350Z,24.70
2022-10-13T17:23:22.278Z,23.08
2022-10-13T17:25:50.148Z,31.13
2022-10-13T17:28:18.189Z,23.30
2022-10-13T17:30:46.190Z,28.10
2022-10-13T17:33:15.301Z,25.08
2022-10-13T17:35:42.968Z,30.13
2022-10-13T17:38:10.718Z,34.13
2022-10-13T17:40:38.474Z,32.13
2022-10-13T17:43:06.089Z,43.67
2022-10-13T17:45:33.719Z,31.40
2022-10-13T17:48:01.722Z,24.73
2022-10-13T17:50:30.741Z,25.13
2022-10-13T17:52:58.402Z,22.60
2022-10-13T17:55:26.053Z,23.48
2022-10-13T17:57:53.673Z,24.38
2022-10-13T18:00:21.595Z,27.73
2022-10-13T18:02:49.388Z,27.17
2022-10-13T18:05:17.174Z,27.75
2022-10-13T18:07:46.202Z,25.73
2022-10-13T18:12:08.210Z,23.40
2022-10-13T18:14:35.946Z,22.98
2022-10-13T18:17:03.612Z,23.10
2022-10-13T18:19:31.228Z,24.88
2022-10-13T18:21:58.908Z,24.07
2022-10-13T18:24:26.775Z,21.92
2022-10-13T18:26:54.545Z,24.00
2022-10-13T18:29:23.724Z,23.40
2022-10-13T18:31:51.357Z,28.42
2022-10-13T18:34:19.169Z,27.40
2022-10-13T18:36:48.351Z,26.65
2022-10-13T18:39:18.034Z,25.70
2022-10-13T18:41:46.025Z,24.42
2022-10-13T18:44:13.876Z,26.47
2022-10-13T18:46:43.042Z,29.42
2022-10-13T18:49:13.487Z,29.38
2022-10-13T18:51:41.304Z,27.90
2022-10-13T18:54:15.987Z,27.25
2022-10-13T18:56:43.676Z,26.83
2022-10-13T18:59:12.321Z,26.42
2022-10-13T19:01:42.804Z,27.07
2022-10-13T19:04:12.875Z,25.73
2022-10-13T19:06:41.091Z,26.42
2022-10-13T19:09:11.125Z,28.50
2022-10-13T19:11:38.898Z,30.05
2022-10-13T19:14:07.590Z,27.67
2022-10-13T19:16:37.293Z,25.08
2022-10-13T19:19:07.947Z,32.15
2022-10-13T19:21:36.008Z,28.05
2022-10-13T19:24:04.005Z,29.80
2022-10-13T19:26:33.859Z,29.40
2022-10-13T19:29:03.132Z,27.88
2022-10-13T19:31:31.968Z,28.85
2022-10-13T19:34:00.407Z,33.75
2022-10-13T19:36:31.657Z,32.15
2022-10-13T19:38:59.994Z,35.38
2022-10-13T19:41:29.661Z,30.42
2022-10-13T19:43:57.832Z,36.20
2022-10-13T19:46:25.480Z,34.00
2022-10-13T19:48:53.187Z,30.65
2022-10-13T19:51:20.913Z,29.05
2022-10-13T19:53:50.023Z,27.90
2022-10-13T19:56:25.442Z,29.73
2022-10-13T19:58:54.159Z,29.25
2022-10-13T20:01:21.976Z,30.00
2022-10-13T20:03:49.952Z,28.50
2022-10-13T20:06:18.367Z,31.33
2022-10-13T20:08:46.274Z,32.20
2022-10-13T20:11:22.184Z,30.50
2022-10-13T20:13:51.561Z,28.58
2022-10-13T20:16:20.913Z,27.73
2022-10-13T20:18:52.426Z,30.25
2022-10-13T20:21:20.129Z,29.85
2022-10-13T20:23:47.887Z,31.65
2022-10-13T20:26:17.036Z,32.50
2022-10-13T20:28:46.138Z,29.95
2022-10-13T20:31:14.666Z,32.70
2022-10-13T20:33:42.593Z,31.90
2022-10-13T20:36:13.055Z,34.13
2022-10-13T20:38:40.775Z,32.72
2022-10-13T20:41:10.427Z,34.47
2022-10-13T20:43:39.481Z,29.42
2022-10-13T20:46:08.846Z,31.00
2022-10-13T20:48:58.199Z,33.00
2022-10-13T20:51:26.682Z,32.45
2022-10-13T20:53:54.362Z,32.65
2022-10-13T20:56:23.594Z,32.22
2022-10-13T20:58:53.132Z,35.47
2022-10-13T21:01:22.509Z,33.58
2022-10-13T21:03:52.972Z,33.35
2022-10-13T21:06:20.876Z,31.90
2022-10-13T21:08:49.145Z,31.17
2022-10-13T21:11:18.132Z,32.53
2022-10-13T21:13:46.047Z,32.63
2022-10-13T21:16:17.139Z,33.10
2022-10-13T21:18:45.728Z,31.48
2022-10-13T21:21:13.443Z,32.28
2022-10-13T21:23:41.131Z,30.42
2022-10-13T21:26:10.211Z,33.03
2022-10-13T21:28:38.844Z,32.00
2022-10-13T21:31:08.209Z,32.95
2022-10-13T21:33:38.395Z,29.52
2022-10-13T21:36:07.638Z,33.72
2022-10-13T21:38:35.567Z,32.78
2022-10-13T21:41:05.036Z,30.65
2022-10-13T21:43:32.698Z,34.03
2022-10-13T21:46:09.381Z,34.28
2022-10-13T21:48:38.439Z,32.42
2022-10-13T21:51:16.999Z,33.70
2022-10-13T21:53:48.057Z,32.00
2022-10-13T21:56:15.779Z,35.20
2022-10-13T21:58:43.546Z,36.20
2022-10-13T22:01:11.575Z,35.73
2022-10-13T22:03:41.645Z,36.30
2022-10-13T22:06:15.882Z,36.08
2022-10-13T22:08:47.542Z,37.35
2022-10-13T22:11:15.973Z,36.15
2022-10-13T22:13:43.686Z,35.33
2022-10-13T22:16:14.217Z,38.00
2022-10-13T22:18:43.559Z,36.88
2022-10-13T22:21:13.587Z,36.67
2022-10-13T22:23:41.977Z,39.22
2022-10-13T22:26:10.323Z,39.60
2022-10-13T22:28:38.264Z,38.50
2022-10-13T22:31:06.627Z,39.63
2022-10-13T22:33:36.346Z,40.25
2022-10-13T22:36:09.006Z,39.75
2022-10-13T22:38:36.942Z,40.92
2022-10-13T22:41:05.742Z,42.47
2022-10-13T22:43:33.458Z,43.60
2022-10-13T22:46:02.457Z,44.30
2022-10-13T22:48:30.238Z,42.53
2022-10-13T22:50:58.059Z,43.15
2022-10-13T22:53:27.183Z,42.45
2022-10-13T22:55:54.874Z,40.53
2022-10-13T22:58:22.627Z,39.90
2022-10-13T23:00:50.253Z,40.65
2022-10-13T23:03:18.299Z,40.00
2022-10-13T23:05:48.476Z,40.75
2022-10-13T23:08:16.257Z,38.60
2022-10-13T23:10:45.582Z,37.85
2022-10-13T23:13:13.298Z,39.78
2022-10-13T23:15:40.974Z,38.80
2022-10-13T23:18:08.663Z,37.70
2022-10-13T23:20:40.321Z,38.20
2022-10-13T23:23:08.057Z,37.83
2022-10-13T23:25:36.247Z,37.38
2022-10-13T23:28:06.110Z,36.58
2022-10-13T23:30:33.746Z,34.83
2022-10-13T23:33:01.449Z,37.45
2022-10-13T23:35:29.172Z,37.10
2022-10-13T23:37:56.904Z,35.65
2022-10-13T23:40:24.555Z,38.50
2022-10-13T23:42:52.464Z,35.55
2022-10-13T23:45:21.560Z,34.35
2022-10-13T23:47:49.444Z,35.72
2022-10-13T23:50:17.627Z,34.03
2022-10-13T23:52:45.631Z,33.43
2022-10-13T23:55:13.349Z,33.53
2022-10-13T23:57:41.214Z,33.90
